Time,TemperatureF,DewpointF,PressureIn,WindDirection,WindDirectionDegrees,WindSpeedMPH,WindSpeedGustMPH,Humidity,HourlyPrecipIn,Conditions,Clouds,dailyrainin,SoftwareType,DateUTC
2013-03-19 00:04:00,40.8,41.0,30.00,SE,136,5.0,6.0,100,0.00,,,0.54,weatherlink.com 1.10,2013-03-19 04:04:00,
2013-03-19 00:19:00,41.0,41.0,30.00,SE,139,5.0,8.0,100,0.00,,,0.00,weatherlink.com 1.10,2013-03-19 04:19:00,
2013-03-19 00:34:00,41.5,42.0,30.00,SSE,152,2.0,10.0,100,0.00,,,0.00,weatherlink.com 1.10,2013-03-19 04:34:00,
2013-03-19 00:49:00,42.5,43.0,30.00,ESE,117,0.0,2.0,100,0.00,,,0.00,weatherlink.com 1.10,2013-03-19 04:49:00,
2013-03-19 01:04:00,41.4,41.0,30.00,SSE,152,5.0,8.0,100,0.00,,,0.00,weatherlink.com 1.10,2013-03-19 05:04:00,
2013-03-19 01:19:00,41.7,42.0,29.99,SSE,152,5.0,9.0,100,0.00,,,0.00,weatherlink.com 1.10,2013-03-19 05:19:00,
2013-03-19 01:34:00,42.8,43.0,29.99,ESE,111,0.0,6.0,100,0.00,,,0.00,weatherlink.com 1.10,2013-03-19 05:34:00,
2013-03-19 01:49:00,43.2,43.0,30.00,SE,129,0.0,2.0,100,0.00,,,0.00,weatherlink.com 1.10,2013-03-19 05:49:00,
2013-03-19 02:04:00,44.2,44.0,29.99,SE,136,1.0,2.0,100,0.00,,,0.00,weatherlink.com 1.10,2013-03-19 06:04:00,
2013-03-19 02:19:00,44.4,44.0,29.99,SE,138,1.0,9.0,100,0.00,,,0.00,weatherlink.com 1.10,2013-03-19 06:19:00,
2013-03-19 02:34:00,45.5,45.0,29.99,NE,49,0.0,2.0,99,0.00,,,0.00,weatherlink.com 1.10,2013-03-19 06:34:00,
2013-03-19 02:49:00,45.1,44.0,29.98,West,278,0.0,4.0,95,0.00,,,0.00,weatherlink.com 1.10,2013-03-19 06:49:00,
2013-03-19 03:04:00,45.1,44.0,29.99,North,5,0.0,2.0,97,0.01,,,0.01,weatherlink.com 1.10,2013-03-19 07:04:00,
2013-03-19 03:20:00,43.9,43.0,29.99,NNW,329,1.0,3.0,98,0.02,,,0.02,weatherlink.com 1.10,2013-03-19 07:20:00,
2013-03-19 03:35:00,43.2,43.0,29.99,North,350,0.0,5.0,98,0.02,,,0.02,weatherlink.com 1.10,2013-03-19 07:35:00,
2013-03-19 03:50:00,41.7,41.0,29.99,WSW,242,0.0,5.0,98,0.03,,,0.03,weatherlink.com 1.10,2013-03-19 07:50:00,
2013-03-19 04:05:00,42.9,42.0,29.98,NW,319,2.0,2.0,97,0.02,,,0.03,weatherlink.com 1.10,2013-03-19 08:05:00,
2013-03-19 04:20:00,42.8,42.0,29.98,NNW,331,1.0,3.0,97,0.02,,,0.04,weatherlink.com 1.10,2013-03-19 08:20:00,
2013-03-19 04:35:00,42.9,42.0,29.97,WNW,301,6.0,6.0,98,0.02,,,0.04,weatherlink.com 1.10,2013-03-19 08:35:00,
2013-03-19 04:50:00,42.7,42.0,29.98,NW,315,3.0,9.0,98,0.01,,,0.04,weatherlink.com 1.10,2013-03-19 08:50:00,
2013-03-19 05:05:00,42.6,42.0,29.97,NW,326,6.0,9.0,98,0.01,,,0.04,weatherlink.com 1.10,2013-03-19 09:05:00,
2013-03-19 05:20:00,42.4,42.0,29.98,WNW,299,5.0,12.0,98,0.01,,,0.05,weatherlink.com 1.10,2013-03-19 09:20:00,
2013-03-19 05:35:00,41.5,41.0,29.99,SW,232,14.0,14.0,98,0.01,,,0.05,weatherlink.com 1.10,2013-03-19 09:35:00,
2013-03-19 05:50:00,41.1,41.0,29.99,West,267,2.0,12.0,98,0.01,,,0.05,weatherlink.com 1.10,2013-03-19 09:50:00,
2013-03-19 06:05:00,40.4,40.0,30.00,West,267,2.0,16.0,98,0.02,,,0.06,weatherlink.com 1.10,2013-03-19 10:05:00,
2013-03-19 06:20:00,38.7,38.0,30.02,WSW,246,4.0,17.0,97,0.01,,,0.06,weatherlink.com 1.10,2013-03-19 10:20:00,
2013-03-19 06:35:00,37.8,37.0,30.03,WSW,243,9.0,20.0,98,0.01,,,0.06,weatherlink.com 1.10,2013-03-19 10:35:00,
2013-03-19 06:50:00,36.3,36.0,30.05,West,277,12.0,19.0,97,0.01,,,0.06,weatherlink.com 1.10,2013-03-19 10:50:00,
2013-03-19 07:05:00,34.6,34.0,30.05,SW,226,2.0,15.0,97,0.00,,,0.06,weatherlink.com 1.10,2013-03-19 11:05:00,
2013-03-19 07:20:00,33.5,33.0,30.05,NNE,20,7.0,20.0,97,0.00,,,0.06,weatherlink.com 1.10,2013-03-19 11:20:00,
2013-03-19 07:35:00,31.8,31.0,30.05,WNW,299,2.0,12.0,95,0.00,,,0.06,weatherlink.com 1.10,2013-03-19 11:35:00,
2013-03-19 07:50:00,31.1,28.0,30.07,WNW,290,4.0,22.0,87,0.00,,,0.06,weatherlink.com 1.10,2013-03-19 11:50:00,
2013-03-19 08:05:00,30.7,28.0,30.09,NNW,342,15.0,23.0,88,0.00,,,0.06,weatherlink.com 1.10,2013-03-19 12:05:00,
2013-03-19 08:20:00,30.4,28.0,30.08,NNE,12,8.0,20.0,90,0.00,,,0.06,weatherlink.com 1.10,2013-03-19 12:20:00,
2013-03-19 08:35:00,30.1,28.0,30.08,NW,321,6.0,19.0,91,0.00,,,0.06,weatherlink.com 1.10,2013-03-19 12:35:00,
2013-03-19 08:50:00,29.8,28.0,30.08,NW,312,6.0,20.0,91,0.00,,,0.06,weatherlink.com 1.10,2013-03-19 12:50:00,
2013-03-19 09:05:00,29.2,26.0,30.07,NW,321,15.0,18.0,88,0.00,,,0.06,weatherlink.com 1.10,2013-03-19 13:05:00,
2013-03-19 09:20:00,29.3,26.0,30.08,North,349,6.0,18.0,87,0.00,,,0.06,weatherlink.com 1.10,2013-03-19 13:20:00,
2013-03-19 09:35:00,29.6,26.0,30.07,West,263,10.0,18.0,85,0.00,,,0.06,weatherlink.com 1.10,2013-03-19 13:35:00,
2013-03-19 09:51:00,29.7,25.0,30.07,WNW,297,10.0,17.0,83,0.00,,,0.06,weatherlink.com 1.10,2013-03-19 13:51:00,
2013-03-19 10:06:00,30.3,25.0,30.08,NNW,329,12.0,16.0,79,0.00,,,0.06,weatherlink.com 1.10,2013-03-19 14:06:00,
2013-03-19 10:21:00,30.8,24.0,30.07,NW,323,16.0,25.0,76,0.00,,,0.06,weatherlink.com 1.10,2013-03-19 14:21:00,
2013-03-19 11:06:00,32.6,24.0,30.07,NW,305,13.0,23.0,70,0.00,,,0.06,weatherlink.com 1.10,2013-03-19 15:06:00,
2013-03-19 11:21:00,33.1,24.0,30.07,NNW,338,8.0,27.0,70,0.00,,,0.06,weatherlink.com 1.10,2013-03-19 15:21:00,
2013-03-19 12:06:00,34.9,25.0,30.09,NW,323,9.0,22.0,68,0.00,,,0.06,weatherlink.com 1.10,2013-03-19 16:06:00,
2013-03-19 12:51:00,37.3,25.0,30.10,SW,224,13.0,20.0,61,0.00,,,0.06,weatherlink.com 1.10,2013-03-19 16:51:00,
2013-03-19 13:06:00,37.1,23.0,30.10,West,278,8.0,18.0,56,0.00,,,0.06,weatherlink.com 1.10,2013-03-19 17:06:00,
2013-03-19 13:22:00,38.3,25.0,30.09,SW,226,7.0,13.0,60,0.00,,,0.06,weatherlink.com 1.10,2013-03-19 17:22:00,
2013-03-19 13:51:00,39.0,24.0,30.09,West,278,3.0,19.0,56,0.00,,,0.06,weatherlink.com 1.10,2013-03-19 17:51:00,
2013-03-19 14:06:00,40.6,27.0,30.10,NNW,346,5.0,19.0,59,0.00,,,0.06,weatherlink.com 1.10,2013-03-19 18:06:00,
2013-03-19 14:21:00,39.7,25.0,30.11,West,271,9.0,22.0,56,0.00,,,0.06,weatherlink.com 1.10,2013-03-19 18:21:00,
2013-03-19 14:36:00,40.5,28.0,30.10,West,276,8.0,23.0,61,0.00,,,0.06,weatherlink.com 1.10,2013-03-19 18:36:00,
2013-03-19 14:51:00,40.5,27.0,30.09,WNW,301,6.0,20.0,60,0.00,,,0.06,weatherlink.com 1.10,2013-03-19 18:51:00,
2013-03-19 15:06:00,40.1,26.0,30.09,NW,314,7.0,18.0,58,0.00,,,0.06,weatherlink.com 1.10,2013-03-19 19:06:00,
2013-03-19 15:51:00,42.1,25.0,30.08,NW,320,8.0,17.0,50,0.00,,,0.06,weatherlink.com 1.10,2013-03-19 19:51:00,
2013-03-19 16:06:00,42.0,23.0,30.10,WNW,285,10.0,26.0,47,0.00,,,0.06,weatherlink.com 1.10,2013-03-19 20:06:00,
2013-03-19 16:36:00,42.4,25.0,30.09,West,269,10.0,23.0,51,0.00,,,0.06,weatherlink.com 1.10,2013-03-19 20:36:00,
2013-03-19 16:51:00,42.2,25.0,30.08,WSW,243,12.0,25.0,50,0.00,,,0.06,weatherlink.com 1.10,2013-03-19 20:51:00,
2013-03-19 17:06:00,42.7,23.0,30.09,NW,305,17.0,18.0,45,0.00,,,0.06,weatherlink.com 1.10,2013-03-19 21:06:00,
2013-03-19 17:22:00,41.6,23.0,30.11,NW,313,10.0,22.0,47,0.00,,,0.06,weatherlink.com 1.10,2013-03-19 21:22:00,
2013-03-19 17:36:00,41.7,22.0,30.10,WNW,288,11.0,20.0,45,0.00,,,0.06,weatherlink.com 1.10,2013-03-19 21:36:00,
2013-03-19 17:51:00,41.9,24.0,30.10,West,260,9.0,23.0,49,0.00,,,0.06,weatherlink.com 1.10,2013-03-19 21:51:00,
2013-03-19 18:07:00,41.6,21.0,30.10,WSW,253,11.0,20.0,44,0.00,,,0.06,weatherlink.com 1.10,2013-03-19 22:07:00,
2013-03-19 18:22:00,41.6,20.0,30.11,West,269,4.0,19.0,43,0.00,,,0.06,weatherlink.com 1.10,2013-03-19 22:22:00,
2013-03-19 18:37:00,41.3,17.0,30.11,SW,232,15.0,19.0,37,0.00,,,0.06,weatherlink.com 1.10,2013-03-19 22:37:00,
2013-03-19 18:52:00,40.8,13.0,30.11,NNW,330,9.0,22.0,32,0.00,,,0.06,weatherlink.com 1.10,2013-03-19 22:52:00,
2013-03-19 19:07:00,40.1,12.0,30.12,West,273,10.0,20.0,31,0.00,,,0.06,weatherlink.com 1.10,2013-03-19 23:07:00,
2013-03-19 19:22:00,39.0,11.0,30.12,SW,224,8.0,20.0,31,0.00,,,0.06,weatherlink.com 1.10,2013-03-19 23:22:00,
2013-03-19 19:37:00,38.0,8.0,30.13,West,271,17.0,18.0,29,0.00,,,0.06,weatherlink.com 1.10,2013-03-19 23:37:00,
2013-03-19 19:52:00,37.4,7.0,30.13,WNW,288,3.0,19.0,28,0.00,,,0.06,weatherlink.com 1.10,2013-03-19 23:52:00,
2013-03-19 20:07:00,36.8,6.0,30.14,WNW,287,10.0,15.0,28,0.00,,,0.06,weatherlink.com 1.10,2013-03-20 00:07:00,
2013-03-19 20:22:00,36.6,7.0,30.15,SW,236,9.0,21.0,29,0.00,,,0.06,weatherlink.com 1.10,2013-03-20 00:22:00,
2013-03-19 20:37:00,36.1,8.0,30.15,NW,305,6.0,16.0,31,0.00,,,0.06,weatherlink.com 1.10,2013-03-20 00:37:00,
2013-03-19 20:52:00,35.7,9.0,30.15,SW,228,11.0,19.0,33,0.00,,,0.06,weatherlink.com 1.10,2013-03-20 00:52:00,
2013-03-19 21:07:00,35.3,10.0,30.15,West,259,6.0,19.0,35,0.00,,,0.06,weatherlink.com 1.10,2013-03-20 01:07:00,
2013-03-19 21:22:00,34.9,10.0,30.15,WSW,256,10.0,14.0,35,0.00,,,0.06,weatherlink.com 1.10,2013-03-20 01:22:00,
2013-03-19 21:37:00,34.3,10.0,30.15,NW,304,4.0,14.0,37,0.00,,,0.06,weatherlink.com 1.10,2013-03-20 01:37:00,
2013-03-19 21:52:00,34.1,10.0,30.16,West,274,6.0,13.0,37,0.00,,,0.06,weatherlink.com 1.10,2013-03-20 01:52:00,
2013-03-19 22:07:00,33.6,10.0,30.15,NW,307,11.0,15.0,38,0.00,,,0.06,weatherlink.com 1.10,2013-03-20 02:07:00,
2013-03-19 22:22:00,33.3,10.0,30.15,WNW,285,2.0,13.0,38,0.00,,,0.06,weatherlink.com 1.10,2013-03-20 02:22:00,
2013-03-19 22:37:00,32.9,10.0,30.16,NW,312,4.0,11.0,39,0.00,,,0.06,weatherlink.com 1.10,2013-03-20 02:37:00,
2013-03-19 22:52:00,32.6,10.0,30.15,WNW,291,5.0,12.0,39,0.00,,,0.06,weatherlink.com 1.10,2013-03-20 02:52:00,
2013-03-19 23:07:00,32.4,10.0,30.16,WNW,295,4.0,20.0,39,0.00,,,0.06,weatherlink.com 1.10,2013-03-20 03:07:00,
2013-03-19 23:22:00,32.4,9.0,30.16,NW,316,6.0,12.0,38,0.00,,,0.06,weatherlink.com 1.10,2013-03-20 03:22:00,
2013-03-19 23:37:00,32.0,9.0,30.17,NW,309,3.0,9.0,38,0.00,,,0.06,weatherlink.com 1.10,2013-03-20 03:37:00,
2013-03-19 23:52:00,31.7,9.0,30.17,WSW,255,2.0,7.0,38,0.00,,,0.06,weatherlink.com 1.10,2013-03-20 03:52:00,